createdAt,value
2023-04-01T00:00:37.012Z,99299.56
2023-04-01T00:03:39.805Z,99296.81
2023-04-01T00:06:42.789Z,99302.00
2023-04-01T00:09:45.979Z,99301.75
2023-04-01T00:12:48.929Z,99296.88
2023-04-01T00:15:54.630Z,99295.19
2023-04-01T00:18:57.631Z,99297.38
2023-04-01T00:22:00.968Z,99300.13
2023-04-01T00:25:04.351Z,99301.19
2023-04-01T00:28:07.222Z,99297.38
2023-04-01T00:31:13.224Z,99295.47
2023-04-01T00:34:16.213Z,99300.38
2023-04-01T00:37:19.286Z,99292.16
2023-04-01T00:40:29.143Z,99297.06
2023-04-01T00:43:32.063Z,99292.72
2023-04-01T00:46:36.645Z,99299.56
2023-04-01T00:49:41.866Z,99297.13
2023-04-01T00:52:45.392Z,99301.25
2023-04-01T00:55:54.106Z,99296.81
2023-04-01T00:59:01.234Z,99303.41
2023-04-01T01:02:07.874Z,99300.41
2023-04-01T01:05:13.811Z,99306.19
2023-04-01T01:08:22.987Z,99299.59
2023-04-01T01:11:37.015Z,99300.72
2023-04-01T01:14:57.479Z,99302.34
2023-04-01T01:18:10.190Z,99296.88
2023-04-01T01:21:40.090Z,99303.41
2023-04-01T01:24:56.688Z,99301.25
2023-04-01T01:28:14.998Z,99302.88
2023-04-01T01:31:25.867Z,99306.16
2023-04-01T01:34:36.663Z,99310.28
2023-04-01T01:37:43.185Z,99306.97
2023-04-01T01:40:49.903Z,99305.91
2023-04-01T01:43:54.523Z,99316.03
2023-04-01T01:46:58.599Z,99305.91
2023-04-01T01:50:02.909Z,99312.50
2023-04-01T01:53:08.789Z,99316.06
2023-04-01T01:56:13.648Z,99308.94
2023-04-01T01:59:19.114Z,99312.50
2023-04-01T02:02:23.767Z,99315.25
2023-04-01T02:05:28.410Z,99306.19
2023-04-01T02:08:37.578Z,99305.69
2023-04-01T02:11:46.270Z,99316.06
2023-04-01T02:14:54.095Z,99314.13
2023-04-01T02:17:58.194Z,99317.97
2023-04-01T02:21:02.765Z,99315.25
2023-04-01T02:24:12.087Z,99318.28
2023-04-01T02:27:15.014Z,99322.66
2023-04-01T02:30:19.314Z,99317.16
2023-04-01T02:33:23.045Z,99314.94
2023-04-01T02:36:26.365Z,99310.56
2023-04-01T02:39:30.688Z,99313.91
2023-04-01T02:42:33.549Z,99322.72
2023-04-01T02:45:36.320Z,99327.66
2023-04-01T02:48:39.215Z,99322.19
2023-04-01T02:51:42.040Z,99337.53
2023-04-01T02:54:46.310Z,99328.50
2023-04-01T02:57:49.160Z,99338.06
2023-04-01T03:00:51.991Z,99334.81
2023-04-01T03:03:55.046Z,99335.41
2023-04-01T03:06:57.748Z,99339.25
2023-04-01T03:10:01.996Z,99343.91
2023-04-01T03:13:05.035Z,99340.59
2023-04-01T03:16:08.150Z,99336.44
2023-04-01T03:19:11.046Z,99349.03
2023-04-01T03:22:13.760Z,99349.59
2023-04-01T03:25:18.038Z,99349.59
2023-04-01T03:28:20.746Z,99341.91
2023-04-01T03:31:23.991Z,99343.91
2023-04-01T03:34:27.216Z,99345.84
2023-04-01T03:37:29.970Z,99347.25
2023-04-01T03:40:38.163Z,99349.97
2023-04-01T03:43:40.917Z,99354.69
2023-04-01T03:46:43.860Z,99356.88
2023-04-01T03:49:46.645Z,99361.25
2023-04-01T03:52:49.356Z,99363.78
2023-04-01T03:55:53.558Z,99361.84
2023-04-01T03:58:56.397Z,99371.13
2023-04-01T04:01:59.349Z,99375.25
2023-04-01T04:05:02.084Z,99369.25
2023-04-01T04:08:05.216Z,99371.47
2023-04-01T04:11:09.675Z,99385.16
2023-04-01T04:14:12.397Z,99378.38
2023-04-01T04:17:17.252Z,99384.94
2023-04-01T04:20:20.541Z,99381.31
2023-04-01T04:23:23.919Z,99385.91
2023-04-01T04:26:28.429Z,99378.72
2023-04-01T04:29:31.774Z,99382.59
2023-04-01T04:32:34.618Z,99386.44
2023-04-01T04:35:37.367Z,99397.41
2023-04-01T04:38:40.224Z,99395.03
2023-04-01T04:41:44.597Z,99382.66
2023-04-01T04:44:47.274Z,99392.28
2023-04-01T04:47:50.088Z,99399.19
2023-04-01T04:50:53.321Z,99390.78
2023-04-01T04:53:56.144Z,99406.09
2023-04-01T04:57:00.403Z,99395.97
2023-04-01T05:00:03.216Z,99404.38
2023-04-01T05:03:06.306Z,99413.91
2023-04-01T05:06:10.721Z,99405.41
2023-04-01T05:09:13.639Z,99412.81
2023-04-01T05:12:17.770Z,99411.75
2023-04-01T05:15:20.810Z,99411.47
2023-04-01T05:18:23.710Z,99417.25
2023-04-01T05:21:26.457Z,99423.53
2023-04-01T05:24:29.365Z,99417.72
2023-04-01T05:27:33.667Z,99425.66
2023-04-01T05:30:36.602Z,99422.91
2023-04-01T05:33:39.445Z,99418.50
2023-04-01T05:36:42.626Z,99427.25
2023-04-01T05:39:45.562Z,99427.19
2023-04-01T05:42:49.664Z,99427.41
2023-04-01T05:45:52.525Z,99433.13
2023-04-01T05:48:55.408Z,99433.47
2023-04-01T05:51:58.519Z,99439.13
2023-04-01T05:55:01.430Z,99437.47
2023-04-01T05:58:05.701Z,99447.63
2023-04-01T06:01:14.152Z,99435.56
2023-04-01T06:04:20.242Z,99449.50
2023-04-01T06:07:23.092Z,99451.13
2023-04-01T06:10:50.446Z,99451.94
2023-04-01T06:14:12.123Z,99456.03
2023-04-01T06:17:29.053Z,99456.56
2023-04-01T06:20:44.001Z,99461.50
2023-04-01T06:23:59.738Z,99463.13
2023-04-01T06:27:13.930Z,99469.94
2023-04-01T06:30:35.139Z,99477.59
2023-04-01T06:33:52.689Z,99483.59
2023-04-01T06:37:13.318Z,99482.25
2023-04-01T06:40:33.709Z,99480.53
2023-04-01T06:43:45.703Z,99488.69
2023-04-01T06:46:59.479Z,99491.97
2023-04-01T06:50:13.658Z,99487.66
2023-04-01T06:53:23.532Z,99489.25
2023-04-01T06:56:29.135Z,99499.59
2023-04-01T06:59:36.089Z,99487.50
2023-04-01T07:02:43.658Z,99495.72
2023-04-01T07:05:46.580Z,99497.56
2023-04-01T07:08:51.639Z,99504.19
2023-04-01T07:11:58.933Z,99504.13
2023-04-01T07:15:06.510Z,99509.56
2023-04-01T07:18:17.668Z,99504.94
2023-04-01T07:21:31.899Z,99501.97
2023-04-01T07:24:36.721Z,99512.31
2023-04-01T07:27:39.596Z,99510.91
2023-04-01T07:30:52.527Z,99512.75
2023-04-01T07:34:05.690Z,99520.38
2023-04-01T07:37:13.023Z,99513.22
2023-04-01T07:40:28.564Z,99522.22
2023-04-01T07:44:04.713Z,99522.56
2023-04-01T07:47:34.422Z,99525.63
2023-04-01T07:50:43.416Z,99522.50
2023-04-01T07:53:51.322Z,99538.69
2023-04-01T07:57:00.862Z,99529.59
2023-04-01T08:00:11.967Z,99534.72
2023-04-01T08:03:36.032Z,99544.28
2023-04-01T08:06:46.682Z,99543.66
2023-04-01T08:09:56.213Z,99548.03
2023-04-01T08:13:08.230Z,99545.78
2023-04-01T08:16:17.028Z,99550.78
2023-04-01T08:19:31.418Z,99553.91
2023-04-01T08:22:42.097Z,99558.81
2023-04-01T08:25:52.335Z,99559.50
2023-04-01T08:29:01.501Z,99555.91
2023-04-01T08:32:12.600Z,99562.88
2023-04-01T08:35:27.061Z,99569.34
2023-04-01T08:38:37.181Z,99573.66
2023-04-01T08:42:02.912Z,99579.88
2023-04-01T08:45:27.700Z,99584.44
2023-04-01T08:48:52.951Z,99585.53
2023-04-01T08:52:18.164Z,99588.75
2023-04-01T08:55:58.487Z,99589.66
2023-04-01T08:59:26.639Z,99585.44
2023-04-01T09:02:52.288Z,99591.50
2023-04-01T09:06:23.896Z,99599.16
2023-04-01T09:09:57.294Z,99589.22
2023-04-01T09:13:16.345Z,99598.09
2023-04-01T09:16:39.527Z,99609.00
2023-04-01T09:20:00.538Z,99602.84
2023-04-01T09:23:19.846Z,99609.59
2023-04-01T09:26:39.521Z,99617.00
2023-04-01T09:30:22.524Z,99621.94
2023-04-01T09:33:59.691Z,99629.09
2023-04-01T09:37:20.925Z,99633.31
2023-04-01T09:40:33.682Z,99634.91
2023-04-01T09:43:55.824Z,99640.47
2023-04-01T09:47:13.522Z,99641.53
2023-04-01T09:50:31.943Z,99650.59
2023-04-01T09:53:54.324Z,99642.75
2023-04-01T09:57:38.834Z,99650.94
2023-04-01T10:00:57.241Z,99648.75
2023-04-01T10:04:28.902Z,99656.41
2023-04-01T10:07:55.676Z,99662.97
2023-04-01T10:11:16.318Z,99661.06
2023-04-01T10:14:42.109Z,99670.31
2023-04-01T10:18:10.894Z,99667.09
2023-04-01T10:21:58.325Z,99674.88
2023-04-01T10:25:37.377Z,99678.56
2023-04-01T10:29:27.426Z,99681.63
2023-04-01T10:33:16.941Z,99680.25
2023-04-01T10:36:48.103Z,99691.25
2023-04-01T10:40:44.528Z,99695.34
2023-04-01T10:44:13.850Z,99697.91
2023-04-01T10:47:42.008Z,99702.28
2023-04-01T10:51:07.432Z,99696.28
2023-04-01T10:54:23.233Z,99703.94
2023-04-01T10:58:00.927Z,99705.84
2023-04-01T11:01:54.896Z,99700.38
2023-04-01T11:05:38.227Z,99704.47
2023-04-01T11:09:28.604Z,99713.25
2023-04-01T11:13:12.278Z,99706.94
2023-04-01T11:16:52.752Z,99717.88
2023-04-01T11:20:13.154Z,99719.78
2023-04-01T11:23:54.985Z,99719.53
2023-04-01T11:27:24.401Z,99726.09
2023-04-01T11:30:46.365Z,99729.13
2023-04-01T11:33:56.941Z,99739.53
2023-04-01T11:37:09.118Z,99728.59
2023-04-01T11:40:30.236Z,99727.78
2023-04-01T11:43:39.681Z,99742.56
2023-04-01T11:46:51.545Z,99750.22
2023-04-01T11:50:05.167Z,99762.81
2023-04-01T11:53:25.380Z,99766.38
2023-04-01T11:56:52.268Z,99768.88
2023-04-01T12:00:17.801Z,99774.06
2023-04-01T12:03:37.482Z,99781.72
2023-04-01T12:06:47.154Z,99772.94
2023-04-01T12:09:57.860Z,99784.16
2023-04-01T12:13:07.559Z,99787.16
2023-04-01T12:16:22.904Z,99792.66
2023-04-01T12:19:37.322Z,99801.69
2023-04-01T12:22:51.447Z,99802.50
2023-04-01T12:26:06.426Z,99806.00
2023-04-01T12:29:39.621Z,99805.72
2023-04-01T12:32:48.161Z,99805.47
2023-04-01T12:36:03.761Z,99814.53
2023-04-01T12:39:35.081Z,99811.47
2023-04-01T12:42:51.335Z,99832.59
2023-04-01T12:46:05.707Z,99823.19
2023-04-01T12:49:25.135Z,99822.97
2023-04-01T12:52:39.660Z,99839.34
2023-04-01T12:55:43.744Z,99830.31
2023-04-01T12:59:16.599Z,99839.63
2023-04-01T13:02:34.137Z,99836.66
2023-04-01T13:06:06.468Z,99842.66
2023-04-01T13:09:20.725Z,99847.34
2023-04-01T13:12:39.289Z,99850.72
2023-04-01T13:15:46.849Z,99865.22
2023-04-01T13:19:00.827Z,99860.41
2023-04-01T13:22:13.093Z,99862.28
2023-04-01T13:25:28.904Z,99868.31
2023-04-01T13:28:38.155Z,99869.38
2023-04-01T13:32:05.585Z,99878.41
2023-04-01T13:35:24.105Z,99876.69
2023-04-01T13:38:59.732Z,99886.81
2023-04-01T13:42:15.042Z,99892.34
2023-04-01T13:45:23.342Z,99896.94
2023-04-01T13:48:51.306Z,99892.69
2023-04-01T13:52:19.756Z,99900.03
2023-04-01T13:55:36.374Z,99892.00
2023-04-01T13:58:57.728Z,99899.56
2023-04-01T14:02:30.208Z,99904.41
2023-04-01T14:05:53.645Z,99909.63
2023-04-01T14:09:19.920Z,99910.97
2023-04-01T14:12:31.994Z,99911.28
2023-04-01T14:15:49.417Z,99920.31
2023-04-01T14:19:05.098Z,99923.00
2023-04-01T14:22:19.284Z,99929.50
2023-04-01T14:25:45.502Z,99936.44
2023-04-01T14:28:55.817Z,99939.72
2023-04-01T14:32:08.811Z,99950.66
2023-04-01T14:35:25.925Z,99948.72
2023-04-01T14:38:41.796Z,99952.34
2023-04-01T14:41:50.543Z,99955.69
2023-04-01T14:45:27.116Z,99967.53
2023-04-01T14:48:33.933Z,99965.31
2023-04-01T14:51:41.025Z,99972.06
2023-04-01T14:54:46.576Z,99974.03
2023-04-01T14:58:06.644Z,99982.50
2023-04-01T15:01:24.427Z,99988.69
2023-04-01T15:04:47.236Z,99989.19
2023-04-01T15:08:11.906Z,99995.81
2023-04-01T15:11:27.190Z,99993.06
2023-04-01T15:14:53.838Z,100002.97
2023-04-01T15:18:06.348Z,100003.72
2023-04-01T15:21:23.607Z,100009.66
2023-04-01T15:24:43.207Z,100008.00
2023-04-01T15:27:53.581Z,100021.38
2023-04-01T15:31:02.739Z,100018.97
2023-04-01T15:34:24.068Z,100022.84
2023-04-01T15:37:40.924Z,100019.34
2023-04-01T15:40:49.923Z,100028.09
2023-04-01T15:43:54.075Z,100034.72
2023-04-01T15:47:00.338Z,100042.00
2023-04-01T15:50:28.322Z,100048.50
2023-04-01T15:53:48.733Z,100057.31
2023-04-01T15:57:04.839Z,100059.78
2023-04-01T16:00:15.597Z,100067.34
2023-04-01T16:03:35.457Z,100070.38
2023-04-01T16:07:06.169Z,100067.88
2023-04-01T16:10:21.643Z,100086.16
2023-04-01T16:13:43.713Z,100088.41
2023-04-01T16:16:59.362Z,100088.84
2023-04-01T16:20:15.623Z,100102.63
2023-04-01T16:23:27.230Z,100100.06
2023-04-01T16:26:38.462Z,100109.34
2023-04-01T16:29:50.207Z,100112.09
2023-04-01T16:32:57.032Z,100122.41
2023-04-01T16:36:08.356Z,100134.06
2023-04-01T16:39:33.491Z,100130.44
2023-04-01T16:42:45.539Z,100132.59
2023-04-01T16:45:59.008Z,100136.22
2023-04-01T16:49:06.668Z,100153.97
2023-04-01T16:52:18.819Z,100152.00
2023-04-01T16:55:23.495Z,100164.88
2023-04-01T16:58:29.707Z,100168.19
2023-04-01T17:01:42.801Z,100176.13
2023-04-01T17:04:49.039Z,100176.38
2023-04-01T17:08:13.314Z,100183.22
2023-04-01T17:11:21.896Z,100189.72
2023-04-01T17:14:30.664Z,100202.13
2023-04-01T17:17:40.796Z,100204.19
2023-04-01T17:20:48.626Z,100203.22
2023-04-01T17:23:55.858Z,100208.38
2023-04-01T17:27:08.610Z,100212.91
2023-04-01T17:30:21.629Z,100213.75
2023-04-01T17:33:59.573Z,100227.81
2023-04-01T17:37:11.243Z,100234.75
2023-04-01T17:40:36.316Z,100235.75
2023-04-01T17:43:46.891Z,100243.09
2023-04-01T17:47:15.568Z,100245.97
2023-04-01T17:50:31.792Z,100254.38
2023-04-01T17:53:45.738Z,100261.00
2023-04-01T17:57:04.362Z,100264.13
2023-04-01T18:00:22.989Z,100276.16
2023-04-01T18:03:54.297Z,100285.50
2023-04-01T18:07:24.322Z,100290.63
2023-04-01T18:10:33.526Z,100290.63
2023-04-01T18:14:00.822Z,100297.50
2023-04-01T18:17:25.898Z,100313.25
2023-04-01T18:20:37.748Z,100314.69
2023-04-01T18:23:59.151Z,100314.22
2023-04-01T18:27:09.580Z,100329.22
2023-04-01T18:30:18.321Z,100335.03
2023-04-01T18:33:27.957Z,100326.94
2023-04-01T18:36:42.595Z,100347.69
2023-04-01T18:39:52.152Z,100352.16
2023-04-01T18:43:07.573Z,100362.78
2023-04-01T18:46:18.872Z,100363.28
2023-04-01T18:49:28.177Z,100366.50
2023-04-01T18:52:37.145Z,100370.59
2023-04-01T18:55:44.114Z,100379.84
2023-04-01T18:58:51.108Z,100389.56
2023-04-01T19:02:05.163Z,100399.66
2023-04-01T19:05:14.327Z,100401.97
2023-04-01T19:08:27.206Z,100398.50
2023-04-01T19:11:41.965Z,100404.91
2023-04-01T19:14:55.988Z,100408.53
2023-04-01T19:18:20.002Z,100412.00
2023-04-01T19:21:28.487Z,100423.28
2023-04-01T19:25:01.188Z,100421.63
2023-04-01T19:28:17.856Z,100420.88
2023-04-01T19:31:36.356Z,100436.00
2023-04-01T19:34:51.957Z,100429.28
2023-04-01T19:38:01.437Z,100438.97
2023-04-01T19:41:16.975Z,100442.44
2023-04-01T19:44:35.920Z,100451.25
2023-04-01T19:47:53.230Z,100463.19
2023-04-01T19:51:03.321Z,100463.81
2023-04-01T19:54:21.581Z,100476.94
2023-04-01T19:57:36.911Z,100474.31
2023-04-01T20:00:44.124Z,100481.03
2023-04-01T20:03:50.298Z,100483.63
2023-04-01T20:06:59.427Z,100493.44
2023-04-01T20:10:11.834Z,100504.13
2023-04-01T20:13:24.763Z,100509.28
2023-04-01T20:16:57.400Z,100518.03
2023-04-01T20:20:02.599Z,100524.81
2023-04-01T20:23:36.707Z,100535.78
2023-04-01T20:26:43.247Z,100542.66
2023-04-01T20:30:01.320Z,100537.75
2023-04-01T20:33:26.340Z,100552.09
2023-04-01T20:36:37.054Z,100561.66
2023-04-01T20:40:01.118Z,100567.59
2023-04-01T20:43:30.704Z,100575.03
2023-04-01T20:46:47.083Z,100572.94
2023-04-01T20:50:00.477Z,100587.88
2023-04-01T20:53:10.866Z,100584.97
2023-04-01T20:56:34.939Z,100588.03
2023-04-01T21:00:00.066Z,100584.16
2023-04-01T21:03:17.920Z,100588.38
2023-04-01T21:06:46.855Z,100591.31
2023-04-01T21:10:11.045Z,100606.94
2023-04-01T21:13:35.556Z,100609.28
2023-04-01T21:16:46.085Z,100613.66
2023-04-01T21:20:07.514Z,100614.84
2023-04-01T21:23:40.907Z,100631.53
2023-04-01T21:26:54.410Z,100635.13
2023-04-01T21:30:17.725Z,100636.41
2023-04-01T21:33:43.374Z,100638.94
2023-04-01T21:37:03.854Z,100641.38
2023-04-01T21:40:34.718Z,100657.50
2023-04-01T21:43:52.139Z,100668.38
2023-04-01T21:47:17.156Z,100667.81
2023-04-01T21:51:04.285Z,100678.09
2023-04-01T21:54:33.134Z,100677.53
2023-04-01T21:58:03.178Z,100684.06
2023-04-01T22:01:24.054Z,100683.41
2023-04-01T22:04:50.587Z,100691.16
2023-04-01T22:08:02.830Z,100702.69
2023-04-01T22:11:13.443Z,100701.19
2023-04-01T22:14:22.800Z,100699.69
2023-04-01T22:17:32.413Z,100715.16
2023-04-01T22:20:46.335Z,100715.75
2023-04-01T22:23:58.761Z,100719.06
2023-04-01T22:27:08.269Z,100724.34
2023-04-01T22:30:20.703Z,100728.56
2023-04-01T22:33:34.066Z,100730.38
2023-04-01T22:36:47.909Z,100734.34
2023-04-01T22:40:12.515Z,100738.75
2023-04-01T22:43:22.826Z,100750.47
2023-04-01T22:46:46.106Z,100751.72
2023-04-01T22:49:53.074Z,100756.72
2023-04-01T22:53:02.932Z,100758.41
2023-04-01T22:56:10.658Z,100753.03
2023-04-01T22:59:21.178Z,100759.88
2023-04-01T23:02:29.573Z,100772.63
2023-04-01T23:05:33.869Z,100778.44
2023-04-01T23:08:53.748Z,100782.22
2023-04-01T23:11:59.749Z,100780.16
2023-04-01T23:15:03.902Z,100784.94
2023-04-01T23:18:22.198Z,100787.94
2023-04-01T23:21:32.638Z,100790.00
2023-04-01T23:24:43.141Z,100799.81
2023-04-01T23:27:52.999Z,100809.41
2023-04-01T23:30:56.098Z,100813.78
2023-04-01T23:34:01.659Z,100809.88
2023-04-01T23:37:07.553Z,100812.38
2023-04-01T23:40:15.856Z,100823.84
2023-04-01T23:43:26.782Z,100828.22
2023-04-01T23:46:32.334Z,100828.03
2023-04-01T23:49:40.836Z,100830.31
2023-04-01T23:52:48.286Z,100829.69
2023-04-01T23:55:54.045Z,100839.50
2023-04-01T23:58:58.265Z,100844.09
